createdAt,value
2018-06-07T00:01:56.696Z,13.67
2018-06-07T00:04:25.950Z,13.10
2018-06-07T00:06:55.271Z,13.80
2018-06-07T00:09:24.476Z,13.90
2018-06-07T00:11:53.836Z,13.57
2018-06-07T00:14:23.017Z,13.17
2018-06-07T00:16:52.329Z,13.07
2018-06-07T00:19:21.621Z,14.37
2018-06-07T00:21:50.664Z,13.43
2018-06-07T00:24:19.763Z,13.90
2018-06-07T00:26:48.948Z,13.60
2018-06-07T00:29:18.215Z,13.93
2018-06-07T00:31:47.488Z,13.63
2018-06-07T00:34:16.874Z,13.70
2018-06-07T00:36:46.532Z,13.70
2018-06-07T00:39:15.757Z,13.70
2018-06-07T00:41:44.947Z,14.30
2018-06-07T00:44:14.149Z,13.80
2018-06-07T00:46:43.359Z,14.20
2018-06-07T00:49:12.563Z,14.33
2018-06-07T00:51:42.096Z,13.47
2018-06-07T00:54:11.427Z,14.03
2018-06-07T00:56:52.049Z,13.70
2018-06-07T00:59:21.908Z,13.60
2018-06-07T01:01:51.118Z,13.37
2018-06-07T01:04:20.330Z,13.80
2018-06-07T01:06:49.575Z,13.90
2018-06-07T01:09:18.834Z,14.90
2018-06-07T01:11:48.200Z,13.03
2018-06-07T01:14:17.484Z,13.83
2018-06-07T01:16:46.843Z,13.50
2018-06-07T01:19:16.285Z,14.50
2018-06-07T01:21:45.196Z,14.70
2018-06-07T01:24:14.384Z,13.33
2018-06-07T01:26:43.383Z,13.77
2018-06-07T01:29:26.336Z,14.30
2018-06-07T01:33:26.962Z,13.97
2018-06-07T01:35:58.810Z,14.63
2018-06-07T01:38:39.391Z,13.70
2018-06-07T01:41:08.618Z,13.83
2018-06-07T01:43:37.867Z,12.60
2018-06-07T01:46:07.140Z,13.57
2018-06-07T01:48:36.396Z,14.53
2018-06-07T01:51:05.637Z,13.10
2018-06-07T01:53:35.044Z,15.10
2018-06-07T01:56:04.315Z,14.13
2018-06-07T01:58:33.852Z,13.53
2018-06-07T02:01:03.316Z,14.47
2018-06-07T02:03:32.493Z,13.97
2018-06-07T02:06:02.188Z,13.67
2018-06-07T02:08:31.447Z,14.43
2018-06-07T02:11:00.705Z,14.40
2018-06-07T02:13:29.946Z,13.13
2018-06-07T02:15:59.197Z,14.27
2018-06-07T02:18:28.564Z,14.40
2018-06-07T02:20:57.963Z,13.80
2018-06-07T02:23:27.163Z,13.43
2018-06-07T02:25:56.696Z,13.97
2018-06-07T02:28:25.979Z,14.23
2018-06-07T02:30:55.315Z,14.37
2018-06-07T02:33:24.665Z,14.97
2018-06-07T02:35:54.059Z,15.10
2018-06-07T02:38:23.388Z,16.90
2018-06-07T02:40:52.303Z,17.43
2018-06-07T02:43:21.552Z,17.80
2018-06-07T02:45:51.325Z,17.10
2018-06-07T02:48:20.685Z,17.77
2018-06-07T02:50:50.600Z,17.03
2018-06-07T02:53:19.845Z,17.67
2018-06-07T02:55:49.278Z,17.70
2018-06-07T02:58:18.544Z,16.93
2018-06-07T03:00:47.824Z,17.07
2018-06-07T03:03:17.311Z,16.07
2018-06-07T03:05:46.558Z,15.17
2018-06-07T03:08:15.880Z,17.27
2018-06-07T03:10:45.084Z,17.10
2018-06-07T03:13:14.376Z,19.13
2018-06-07T03:15:43.563Z,18.00
2018-06-07T03:18:12.779Z,18.10
2018-06-07T03:20:42.007Z,16.40
2018-06-07T03:23:11.228Z,17.13
2018-06-07T03:25:40.632Z,16.17
2018-06-07T03:28:10.101Z,13.93
2018-06-07T03:30:39.412Z,13.33
2018-06-07T03:33:08.728Z,13.97
2018-06-07T03:35:38.821Z,13.67
2018-06-07T03:38:08.173Z,12.90
2018-06-07T03:40:37.419Z,12.20
2018-06-07T03:43:06.823Z,12.30
2018-06-07T03:45:36.148Z,13.30
2018-06-07T03:48:05.533Z,12.60
2018-06-07T03:50:34.799Z,11.27
2018-06-07T03:53:04.180Z,10.93
2018-06-07T03:55:33.491Z,12.07
2018-06-07T03:58:02.724Z,11.27
2018-06-07T04:00:32.475Z,9.70
2018-06-07T04:03:01.688Z,10.23
2018-06-07T04:05:30.906Z,11.20
2018-06-07T04:08:00.265Z,11.07
2018-06-07T04:10:29.461Z,10.33
2018-06-07T04:12:58.687Z,9.40
2018-06-07T04:15:27.860Z,9.80
2018-06-07T04:17:57.440Z,9.70
2018-06-07T04:20:26.909Z,9.43
2018-06-07T04:22:56.376Z,9.43
2018-06-07T04:25:25.578Z,9.43
2018-06-07T04:27:54.800Z,9.20
2018-06-07T04:30:24.402Z,10.20
2018-06-07T04:32:53.608Z,8.23
2018-06-07T04:35:22.817Z,9.10
2018-06-07T04:37:52.208Z,10.07
2018-06-07T04:40:21.436Z,9.50
2018-06-07T04:42:50.737Z,9.40
2018-06-07T04:45:19.903Z,9.20
2018-06-07T04:47:49.244Z,9.30
2018-06-07T04:50:18.585Z,8.37
2018-06-07T04:52:47.942Z,9.20
2018-06-07T04:55:17.349Z,8.67
2018-06-07T04:57:47.116Z,8.40
2018-06-07T05:00:16.454Z,8.00
2018-06-07T05:02:45.644Z,9.07
2018-06-07T05:05:15.447Z,8.50
2018-06-07T05:07:44.853Z,8.23
2018-06-07T05:10:14.197Z,7.87
2018-06-07T05:12:43.824Z,8.33
2018-06-07T05:15:20.224Z,9.03
2018-06-07T05:17:49.583Z,8.33
2018-06-07T05:20:18.849Z,8.27
2018-06-07T05:22:48.131Z,8.17
2018-06-07T05:25:17.365Z,8.80
2018-06-07T05:27:46.621Z,8.37
2018-06-07T05:30:16.699Z,8.30
2018-06-07T05:32:45.883Z,7.73
2018-06-07T05:35:15.195Z,7.73
2018-06-07T05:37:44.413Z,7.50
2018-06-07T05:40:13.792Z,8.30
2018-06-07T05:42:43.036Z,7.27
2018-06-07T05:45:11.932Z,7.60
2018-06-07T05:47:41.116Z,7.43
2018-06-07T05:50:10.617Z,7.70
2018-06-07T05:52:39.968Z,9.23
2018-06-07T05:55:10.024Z,8.87
2018-06-07T05:57:39.435Z,7.90
2018-06-07T06:00:08.726Z,7.40
2018-06-07T06:02:38.033Z,8.23
2018-06-07T06:05:07.255Z,7.60
2018-06-07T06:07:36.612Z,7.13
2018-06-07T06:10:06.226Z,7.90
2018-06-07T06:12:35.465Z,7.07
2018-06-07T06:15:05.063Z,7.37
2018-06-07T06:17:34.493Z,6.77
2018-06-07T06:20:03.805Z,6.47
2018-06-07T06:22:33.232Z,6.53
2018-06-07T06:25:02.594Z,6.93
2018-06-07T06:27:31.884Z,6.23
2018-06-07T06:30:01.114Z,7.50
2018-06-07T06:32:30.709Z,7.40
2018-06-07T06:34:59.880Z,6.70
2018-06-07T06:38:38.250Z,7.20
2018-06-07T06:41:07.995Z,8.63
2018-06-07T06:43:37.150Z,8.13
2018-06-07T06:46:07.303Z,8.40
2018-06-07T06:48:36.504Z,8.27
2018-06-07T06:51:05.762Z,8.63
2018-06-07T06:53:35.072Z,7.40
2018-06-07T06:56:04.452Z,8.00
2018-06-07T06:58:33.767Z,8.50
2018-06-07T07:01:03.099Z,11.20
2018-06-07T07:03:32.707Z,9.50
2018-06-07T07:06:02.047Z,9.87
2018-06-07T07:08:31.351Z,10.83
2018-06-07T07:11:00.581Z,9.90
2018-06-07T07:13:29.778Z,11.00
2018-06-07T07:15:59.110Z,9.53
2018-06-07T07:18:28.312Z,10.40
2018-06-07T07:20:57.598Z,10.40
2018-06-07T07:23:26.808Z,10.10
2018-06-07T07:25:56.009Z,10.17
2018-06-07T07:28:25.228Z,9.67
2018-06-07T07:30:54.568Z,11.37
2018-06-07T07:33:24.128Z,11.43
2018-06-07T07:35:53.520Z,11.70
2018-06-07T07:38:22.735Z,13.13
2018-06-07T07:40:52.159Z,12.70
2018-06-07T07:43:21.376Z,11.93
2018-06-07T07:45:50.763Z,12.90
2018-06-07T07:48:19.972Z,12.40
2018-06-07T07:50:49.377Z,10.67
2018-06-07T07:53:18.766Z,12.30
2018-06-07T07:55:47.980Z,12.63
2018-06-07T07:58:17.189Z,11.40
2018-06-07T08:00:46.538Z,11.93
2018-06-07T08:03:15.891Z,9.73
2018-06-07T08:05:45.521Z,10.97
2018-06-07T08:08:15.261Z,10.47
2018-06-07T08:10:44.528Z,12.23
2018-06-07T08:13:13.988Z,12.10
2018-06-07T08:15:43.160Z,11.50
2018-06-07T08:18:12.390Z,12.77
2018-06-07T08:20:41.703Z,11.00
2018-06-07T08:23:11.444Z,11.97
2018-06-07T08:25:40.693Z,12.00
2018-06-07T08:28:09.872Z,12.57
2018-06-07T08:30:39.075Z,11.43
2018-06-07T08:33:08.295Z,13.43
2018-06-07T08:35:37.532Z,11.60
2018-06-07T08:38:06.944Z,13.67
2018-06-07T08:40:36.264Z,12.03
2018-06-07T08:43:05.659Z,11.97
2018-06-07T08:45:34.906Z,12.40
2018-06-07T08:48:04.099Z,13.00
2018-06-07T08:50:33.358Z,14.00
2018-06-07T08:53:02.681Z,13.13
2018-06-07T08:55:31.913Z,13.00
2018-06-07T08:58:01.161Z,13.50
2018-06-07T09:00:30.804Z,12.70
2018-06-07T09:03:00.131Z,13.47
2018-06-07T09:05:29.425Z,14.63
2018-06-07T09:07:58.708Z,12.17
2018-06-07T09:10:28.080Z,13.53
2018-06-07T09:12:57.337Z,12.33
2018-06-07T09:15:26.700Z,12.20
2018-06-07T09:17:55.958Z,12.47
2018-06-07T09:20:25.206Z,11.93
2018-06-07T09:22:54.388Z,11.50
2018-06-07T09:25:23.588Z,12.97
2018-06-07T09:27:52.836Z,13.40
2018-06-07T09:30:22.589Z,12.83
2018-06-07T09:32:51.855Z,13.20
2018-06-07T09:35:21.449Z,13.17
2018-06-07T09:37:50.677Z,13.83
2018-06-07T09:40:19.716Z,12.97
2018-06-07T09:42:48.955Z,13.80
2018-06-07T09:45:18.256Z,13.07
2018-06-07T09:47:47.583Z,13.10
2018-06-07T09:50:16.866Z,14.57
2018-06-07T09:52:46.191Z,13.60
2018-06-07T09:55:15.339Z,12.17
2018-06-07T09:57:44.682Z,15.20
2018-06-07T10:00:19.161Z,14.23
2018-06-07T10:02:48.460Z,12.90
2018-06-07T10:05:17.650Z,14.97
2018-06-07T10:07:46.862Z,12.70
2018-06-07T10:10:16.570Z,13.10
2018-06-07T10:12:45.827Z,12.40
2018-06-07T10:15:15.336Z,14.03
2018-06-07T10:17:44.550Z,13.70
2018-06-07T10:20:14.274Z,14.30
2018-06-07T10:22:43.700Z,13.70
2018-06-07T10:25:12.905Z,13.20
2018-06-07T10:27:42.133Z,15.23
2018-06-07T10:30:11.471Z,13.80
2018-06-07T10:32:40.666Z,14.80
2018-06-07T10:35:09.877Z,14.87
2018-06-07T10:37:39.080Z,13.10
2018-06-07T10:40:08.362Z,11.83
2018-06-07T10:42:37.659Z,17.20
2018-06-07T10:45:07.000Z,16.80
2018-06-07T10:47:36.332Z,15.87
2018-06-07T10:50:05.660Z,13.93
2018-06-07T10:52:34.989Z,14.50
2018-06-07T10:57:40.138Z,15.30
2018-06-07T11:00:09.388Z,15.20
2018-06-07T11:02:38.624Z,14.87
2018-06-07T11:05:07.844Z,14.70
2018-06-07T11:07:37.092Z,16.17
2018-06-07T11:10:06.464Z,15.63
2018-06-07T11:15:10.712Z,14.40
2018-06-07T11:17:39.994Z,16.33
2018-06-07T11:20:09.186Z,16.10
2018-06-07T11:22:38.401Z,13.50
2018-06-07T11:25:07.885Z,13.57
2018-06-07T11:27:37.074Z,17.00
2018-06-07T11:30:06.360Z,14.60
2018-06-07T11:32:35.668Z,14.93
2018-06-07T11:35:04.995Z,16.40
2018-06-07T11:37:34.399Z,16.43
2018-06-07T11:40:03.637Z,16.37
2018-06-07T11:42:33.595Z,15.77
2018-06-07T11:45:02.815Z,17.30
2018-06-07T11:47:32.212Z,16.90
2018-06-07T11:50:01.465Z,15.60
2018-06-07T11:52:30.704Z,17.23
2018-06-07T11:55:00.295Z,17.60
2018-06-07T11:57:29.591Z,15.90
2018-06-07T11:59:58.904Z,15.50
2018-06-07T12:02:28.182Z,16.43
2018-06-07T12:04:57.359Z,19.63
2018-06-07T12:07:26.614Z,18.13
2018-06-07T12:09:55.831Z,16.13
2018-06-07T12:12:25.153Z,14.97
2018-06-07T12:14:54.463Z,15.97
2018-06-07T12:17:23.654Z,18.53
2018-06-07T12:19:52.990Z,19.50
2018-06-07T12:22:22.165Z,18.00
2018-06-07T12:24:51.564Z,18.60
2018-06-07T12:27:20.982Z,18.77
2018-06-07T12:29:50.207Z,19.70
2018-06-07T12:32:19.559Z,18.23
2018-06-07T12:34:48.856Z,17.20
2018-06-07T12:37:18.237Z,16.77
2018-06-07T12:39:47.491Z,14.10
2018-06-07T12:42:16.817Z,13.43
2018-06-07T12:44:46.028Z,15.67
2018-06-07T12:47:15.613Z,14.40
2018-06-07T12:49:44.926Z,13.50
2018-06-07T12:52:14.243Z,15.60
2018-06-07T12:54:43.586Z,15.10
2018-06-07T12:57:12.996Z,14.57
2018-06-07T12:59:41.862Z,15.07
2018-06-07T13:02:11.190Z,13.77
2018-06-07T13:04:40.219Z,14.47
2018-06-07T13:07:09.422Z,14.63
2018-06-07T13:09:39.328Z,16.93
2018-06-07T13:12:08.577Z,16.10
2018-06-07T13:14:38.148Z,17.00
2018-06-07T13:17:07.099Z,15.07
2018-06-07T13:19:35.879Z,15.63
2018-06-07T13:22:05.885Z,16.27
2018-06-07T13:24:34.863Z,15.40
2018-06-07T13:27:04.115Z,16.47
2018-06-07T13:29:33.410Z,15.23
2018-06-07T13:32:03.939Z,17.60
2018-06-07T13:34:33.315Z,17.77
2018-06-07T13:37:02.585Z,16.97
2018-06-07T13:39:32.751Z,14.60
2018-06-07T13:42:02.040Z,15.07
2018-06-07T13:44:31.301Z,18.03
2018-06-07T13:47:00.744Z,17.70
2018-06-07T13:49:30.016Z,16.80
2018-06-07T13:51:59.437Z,15.20
2018-06-07T13:54:28.679Z,16.63
2018-06-07T13:56:58.015Z,16.00
2018-06-07T13:59:27.387Z,15.30
2018-06-07T14:01:56.788Z,14.63
2018-06-07T14:04:26.142Z,18.00
2018-06-07T14:06:55.405Z,17.57
2018-06-07T14:09:24.655Z,16.13
2018-06-07T14:11:53.884Z,14.30
2018-06-07T14:14:23.491Z,13.30
2018-06-07T14:16:52.768Z,13.33
2018-06-07T14:19:22.150Z,12.60
2018-06-07T14:21:51.462Z,12.53
2018-06-07T14:24:20.835Z,12.57
2018-06-07T14:26:50.056Z,14.10
2018-06-07T14:29:19.312Z,13.37
2018-06-07T14:31:48.533Z,13.93
2018-06-07T14:34:17.969Z,13.37
2018-06-07T14:36:47.732Z,13.23
2018-06-07T14:39:17.171Z,13.13
2018-06-07T14:41:46.768Z,15.90
2018-06-07T14:44:16.012Z,15.13
2018-06-07T14:46:45.407Z,16.73
2018-06-07T14:49:14.753Z,15.93
2018-06-07T14:51:44.064Z,16.90
2018-06-07T14:54:13.253Z,17.20
2018-06-07T14:56:42.608Z,17.43
2018-06-07T14:59:12.026Z,16.17
2018-06-07T15:01:41.300Z,18.87
2018-06-07T15:04:10.550Z,18.17
2018-06-07T15:06:39.776Z,18.73
2018-06-07T15:09:09.260Z,16.00
2018-06-07T15:11:38.504Z,18.80
2018-06-07T15:14:07.808Z,17.90
2018-06-07T15:16:37.014Z,18.50
2018-06-07T15:19:06.389Z,18.83
2018-06-07T15:21:35.603Z,16.90
2018-06-07T15:24:05.095Z,17.50
2018-06-07T15:26:34.340Z,16.30
2018-06-07T15:29:03.568Z,18.10
2018-06-07T15:31:32.778Z,19.87
2018-06-07T15:34:02.212Z,19.90
2018-06-07T15:36:31.496Z,22.33
2018-06-07T15:39:00.793Z,18.70
2018-06-07T15:41:30.193Z,23.00
2018-06-07T15:43:59.496Z,23.00
2018-06-07T15:46:28.704Z,23.33
2018-06-07T15:48:57.920Z,19.60
2018-06-07T15:51:27.296Z,22.33
2018-06-07T15:53:56.530Z,20.20
2018-06-07T15:56:25.908Z,18.87
2018-06-07T15:58:55.148Z,19.40
2018-06-07T16:01:24.372Z,20.10
2018-06-07T16:03:54.203Z,18.00
2018-06-07T16:06:23.409Z,18.70
2018-06-07T16:08:52.772Z,19.43
2018-06-07T16:11:22.076Z,18.20
2018-06-07T16:13:51.501Z,20.37
2018-06-07T16:16:20.968Z,7.90
2018-06-07T16:18:50.379Z,6.70
2018-06-07T16:21:20.169Z,5.17
2018-06-07T16:23:49.397Z,5.10
2018-06-07T16:26:18.556Z,7.30
2018-06-07T16:28:47.804Z,8.30
2018-06-07T16:31:17.672Z,7.93
2018-06-07T16:33:46.884Z,9.37
2018-06-07T16:36:16.296Z,9.73
2018-06-07T16:38:45.530Z,7.83
2018-06-07T16:41:14.723Z,7.93
2018-06-07T16:43:43.987Z,8.63
2018-06-07T16:46:13.193Z,11.00
2018-06-07T16:48:42.511Z,12.33
2018-06-07T16:51:11.796Z,13.10
2018-06-07T16:53:41.473Z,8.60
2018-06-07T16:56:10.674Z,9.37
2018-06-07T16:58:39.920Z,9.63
2018-06-07T17:01:09.308Z,9.80
2018-06-07T17:03:38.594Z,11.17
2018-06-07T17:06:07.876Z,11.27
2018-06-07T17:08:37.507Z,12.63
2018-06-07T17:11:06.730Z,12.37
2018-06-07T17:13:35.929Z,11.77
2018-06-07T17:16:05.147Z,11.93
2018-06-07T17:18:34.690Z,11.93
2018-06-07T17:21:03.942Z,13.70
2018-06-07T17:23:33.207Z,13.13
2018-06-07T17:26:02.594Z,12.20
2018-06-07T17:28:31.802Z,12.23
2018-06-07T17:31:01.184Z,13.47
2018-06-07T17:33:30.424Z,15.00
2018-06-07T17:36:00.085Z,12.43
2018-06-07T17:38:29.311Z,12.57
2018-06-07T17:40:58.750Z,13.83
2018-06-07T17:43:27.952Z,14.43
2018-06-07T17:45:57.140Z,15.37
2018-06-07T17:48:26.412Z,13.63
2018-06-07T17:50:55.631Z,16.50
2018-06-07T17:53:24.860Z,15.33
2018-06-07T17:55:54.074Z,13.80
2018-06-07T17:58:23.379Z,13.30
2018-06-07T18:00:52.708Z,13.67
2018-06-07T18:03:21.992Z,13.43
2018-06-07T18:05:51.298Z,12.40
2018-06-07T18:08:20.519Z,13.40
2018-06-07T18:10:49.750Z,11.27
2018-06-07T18:13:19.212Z,12.30
2018-06-07T18:15:48.506Z,11.57
2018-06-07T18:18:17.786Z,11.97
2018-06-07T18:20:47.602Z,13.40
2018-06-07T18:23:16.753Z,11.73
2018-06-07T18:25:46.928Z,11.80
2018-06-07T18:28:16.149Z,11.63
2018-06-07T18:30:45.329Z,11.90
2018-06-07T18:33:14.664Z,14.07
2018-06-07T18:35:43.972Z,11.83
2018-06-07T18:38:13.392Z,12.60
2018-06-07T18:40:42.631Z,12.13
2018-06-07T18:43:11.919Z,14.00
2018-06-07T18:45:41.223Z,14.27
2018-06-07T18:48:10.143Z,13.30
2018-06-07T18:50:39.257Z,12.93
2018-06-07T18:53:08.934Z,14.03
2018-06-07T18:55:40.466Z,12.27
2018-06-07T18:58:10.577Z,13.70
2018-06-07T19:00:39.903Z,12.93
2018-06-07T19:03:09.510Z,14.13
2018-06-07T19:05:38.795Z,14.37
2018-06-07T19:08:08.091Z,13.80
2018-06-07T19:10:38.545Z,13.07
2018-06-07T19:13:13.075Z,14.40
2018-06-07T19:15:42.405Z,14.00
2018-06-07T19:18:11.914Z,15.53
2018-06-07T19:20:46.426Z,13.33
2018-06-07T19:23:15.735Z,14.43
2018-06-07T19:25:50.450Z,13.37
2018-06-07T19:28:19.667Z,12.37
2018-06-07T19:30:48.902Z,12.43
2018-06-07T19:34:23.000Z,13.00
2018-06-07T19:36:52.262Z,13.33
2018-06-07T19:39:26.684Z,13.50
2018-06-07T19:42:01.120Z,13.67
2018-06-07T19:44:30.351Z,13.80
2018-06-07T19:46:59.332Z,17.67
2018-06-07T19:49:29.136Z,15.60
2018-06-07T19:51:58.543Z,16.30
2018-06-07T19:54:27.819Z,15.13
2018-06-07T19:56:57.226Z,14.50
2018-06-07T19:59:26.616Z,16.57
2018-06-07T20:01:56.032Z,16.77
2018-06-07T20:04:25.461Z,21.47
2018-06-07T20:06:54.680Z,20.63
2018-06-07T20:09:23.894Z,24.60
2018-06-07T20:11:53.067Z,21.80
2018-06-07T20:14:22.464Z,20.67
2018-06-07T20:16:51.638Z,24.43
2018-06-07T20:19:20.848Z,22.47
2018-06-07T20:21:50.202Z,22.03
2018-06-07T20:24:19.411Z,21.73
2018-06-07T20:26:48.782Z,18.57
2018-06-07T20:29:18.135Z,18.40
2018-06-07T20:31:47.418Z,18.30
2018-06-07T20:34:17.071Z,20.53
2018-06-07T20:36:46.398Z,20.43
2018-06-07T20:39:15.972Z,19.13
2018-06-07T20:41:45.164Z,20.23
2018-06-07T20:44:14.389Z,21.00
2018-06-07T20:46:43.704Z,20.70
2018-06-07T20:49:13.007Z,25.10
2018-06-07T20:51:42.411Z,23.20
2018-06-07T20:54:11.755Z,22.80
2018-06-07T20:56:41.164Z,23.23
2018-06-07T20:59:10.520Z,22.87
2018-06-07T21:01:39.786Z,18.50
2018-06-07T21:04:09.188Z,19.03
2018-06-07T21:06:39.058Z,19.20
2018-06-07T21:09:09.319Z,18.87
2018-06-07T21:11:38.790Z,19.23
2018-06-07T21:14:08.104Z,21.80
2018-06-07T21:16:37.509Z,20.57
2018-06-07T21:19:06.768Z,21.73
2018-06-07T21:21:36.089Z,21.70
2018-06-07T21:24:05.279Z,20.63
2018-06-07T21:26:34.703Z,20.40
2018-06-07T21:29:03.966Z,21.27
2018-06-07T21:31:33.152Z,20.90
2018-06-07T21:34:02.453Z,22.10
2018-06-07T21:36:31.639Z,20.17
2018-06-07T21:39:00.867Z,21.73
2018-06-07T21:41:30.269Z,23.07
2018-06-07T21:43:59.565Z,22.60
2018-06-07T21:46:35.257Z,24.00
2018-06-07T21:49:04.520Z,25.97
2018-06-07T21:51:33.708Z,29.50
2018-06-07T21:54:03.127Z,27.53
2018-06-07T21:56:32.327Z,28.13
2018-06-07T21:59:01.593Z,30.13
2018-06-07T22:01:30.922Z,31.43
2018-06-07T22:04:00.213Z,33.73
2018-06-07T22:06:29.475Z,33.07
2018-06-07T22:08:58.847Z,33.97
2018-06-07T22:11:28.075Z,29.97
2018-06-07T22:13:57.447Z,35.53
2018-06-07T22:16:26.614Z,36.90
2018-06-07T22:18:55.812Z,37.47
2018-06-07T22:21:25.268Z,36.20
2018-06-07T22:23:54.255Z,39.03
2018-06-07T22:26:23.742Z,40.07
2018-06-07T22:28:52.934Z,37.80
2018-06-07T22:31:22.134Z,38.00
2018-06-07T22:33:51.305Z,37.00
2018-06-07T22:36:20.511Z,39.27
2018-06-07T22:38:49.862Z,37.27
2018-06-07T22:41:19.063Z,37.37
2018-06-07T22:43:48.291Z,37.23
2018-06-07T22:46:17.491Z,40.03
2018-06-07T22:48:46.697Z,39.83
2018-06-07T22:51:15.899Z,37.10
2018-06-07T22:53:45.136Z,38.67
2018-06-07T22:56:14.019Z,38.23
2018-06-07T22:58:43.137Z,37.70
2018-06-07T23:01:12.431Z,38.83
2018-06-07T23:03:41.645Z,37.57
2018-06-07T23:06:10.805Z,34.90
2018-06-07T23:08:40.015Z,36.07
2018-06-07T23:11:09.297Z,34.80
2018-06-07T23:13:38.504Z,35.53
2018-06-07T23:16:07.751Z,35.20
2018-06-07T23:18:36.959Z,34.47
2018-06-07T23:21:06.519Z,33.97
2018-06-07T23:23:35.401Z,35.03
2018-06-07T23:26:04.624Z,35.07
2018-06-07T23:28:33.844Z,33.43
2018-06-07T23:31:03.040Z,36.40
2018-06-07T23:33:32.606Z,37.80
2018-06-07T23:36:01.784Z,38.10
2018-06-07T23:38:31.505Z,37.47
2018-06-07T23:41:00.961Z,38.10
2018-06-07T23:43:30.489Z,39.40
2018-06-07T23:45:59.677Z,37.60
2018-06-07T23:48:28.860Z,34.73
2018-06-07T23:50:58.060Z,36.83
2018-06-07T23:53:27.359Z,36.30
2018-06-07T23:55:56.572Z,37.90
2018-06-07T23:58:25.855Z,37.60
